createdAt,value
2022-11-12T00:01:14.851Z,8.50
2022-11-12T00:03:42.666Z,7.00
2022-11-12T00:06:10.463Z,7.90
2022-11-12T00:08:39.621Z,6.43
2022-11-12T00:11:07.459Z,8.90
2022-11-12T00:13:35.283Z,9.30
2022-11-12T00:16:03.090Z,9.40
2022-11-12T00:18:30.868Z,6.90
2022-11-12T00:20:58.663Z,10.23
2022-11-12T00:23:26.403Z,8.07
2022-11-12T00:26:01.580Z,7.73
2022-11-12T00:28:33.280Z,7.97
2022-11-12T00:31:09.287Z,7.93
2022-11-12T00:33:40.719Z,7.83
2022-11-12T00:36:09.043Z,7.70
2022-11-12T00:38:36.942Z,8.83
2022-11-12T00:41:06.340Z,8.60
2022-11-12T00:43:34.418Z,9.37
2022-11-12T00:46:02.218Z,7.63
2022-11-12T00:48:30.012Z,10.23
2022-11-12T00:51:02.448Z,9.70
2022-11-12T00:53:30.235Z,7.97
2022-11-12T00:56:02.088Z,8.37
2022-11-12T00:58:31.988Z,11.37
2022-11-12T01:01:05.359Z,8.27
2022-11-12T01:03:33.244Z,7.23
2022-11-12T01:06:04.363Z,9.13
2022-11-12T01:08:32.164Z,9.37
2022-11-12T01:11:07.173Z,10.37
2022-11-12T01:13:40.027Z,10.57
2022-11-12T01:16:14.027Z,10.97
2022-11-12T01:18:42.393Z,9.90
2022-11-12T01:21:10.761Z,8.93
2022-11-12T01:23:40.606Z,8.57
2022-11-12T01:26:09.966Z,9.23
2022-11-12T01:28:39.353Z,6.63
2022-11-12T01:31:19.183Z,8.63
2022-11-12T01:33:49.265Z,10.37
2022-11-12T01:36:18.903Z,7.10
2022-11-12T01:38:47.929Z,6.87
2022-11-12T01:41:18.345Z,8.90
2022-11-12T01:43:47.718Z,7.70
2022-11-12T01:46:21.097Z,8.00
2022-11-12T01:48:53.130Z,9.37
2022-11-12T01:51:22.371Z,8.97
2022-11-12T01:53:54.496Z,8.20
2022-11-12T01:56:24.355Z,8.57
2022-11-12T01:58:59.519Z,9.13
2022-11-12T02:01:27.553Z,10.53
2022-11-12T02:03:56.132Z,8.37
2022-11-12T02:06:25.014Z,10.57
2022-11-12T02:08:53.053Z,9.07
2022-11-12T02:11:22.613Z,7.07
2022-11-12T02:14:01.038Z,8.83
2022-11-12T02:16:33.176Z,10.70
2022-11-12T02:19:01.442Z,8.10
2022-11-12T02:21:31.341Z,10.07
2022-11-12T02:24:00.754Z,9.73
2022-11-12T02:26:32.645Z,7.67
2022-11-12T02:29:00.465Z,9.53
2022-11-12T02:31:28.560Z,9.00
2022-11-12T02:33:56.371Z,8.50
2022-11-12T02:36:24.493Z,12.23
2022-11-12T02:38:53.744Z,8.67
2022-11-12T02:41:22.136Z,9.37
2022-11-12T02:43:49.971Z,9.13
2022-11-12T02:46:17.865Z,8.47
2022-11-12T02:48:45.770Z,9.57
2022-11-12T02:51:13.685Z,8.30
2022-11-12T02:53:41.509Z,9.60
2022-11-12T02:56:10.654Z,12.37
2022-11-12T02:58:38.483Z,8.67
2022-11-12T03:01:06.452Z,10.47
2022-11-12T03:03:34.258Z,11.33
2022-11-12T03:06:02.669Z,9.83
2022-11-12T03:08:30.460Z,8.00
2022-11-12T03:10:58.264Z,9.47
2022-11-12T03:13:27.387Z,10.03
2022-11-12T03:16:00.994Z,11.53
2022-11-12T03:18:29.215Z,11.90
2022-11-12T03:20:57.154Z,10.57
2022-11-12T03:23:25.075Z,11.83
2022-11-12T03:25:52.866Z,13.17
2022-11-12T03:28:20.757Z,11.97
2022-11-12T03:30:49.975Z,14.10
2022-11-12T03:33:17.867Z,17.10
2022-11-12T03:35:45.809Z,13.97
2022-11-12T03:38:13.715Z,16.50
2022-11-12T03:40:41.556Z,14.70
2022-11-12T03:43:09.960Z,13.70
2022-11-12T03:45:37.778Z,12.93
2022-11-12T03:48:07.459Z,15.20
2022-11-12T03:50:35.282Z,13.97
2022-11-12T03:53:03.119Z,15.13
2022-11-12T03:55:31.279Z,14.30
2022-11-12T03:57:59.758Z,15.33
2022-11-12T04:00:29.922Z,20.27
2022-11-12T04:02:58.800Z,16.00
2022-11-12T04:05:45.555Z,19.63
2022-11-12T04:08:33.631Z,21.03
2022-11-12T04:11:01.792Z,19.47
2022-11-12T04:13:28.956Z,21.73
2022-11-12T04:16:13.120Z,21.93
2022-11-12T04:18:58.261Z,20.60
2022-11-12T04:21:49.194Z,24.20
2022-11-12T04:24:31.086Z,20.67
2022-11-12T04:26:58.892Z,23.00
2022-11-12T04:29:44.126Z,23.47
2022-11-12T04:32:11.918Z,23.50
2022-11-12T04:34:39.753Z,23.00
2022-11-12T04:37:09.236Z,26.17
2022-11-12T04:39:37.047Z,26.17
2022-11-12T04:42:22.982Z,25.47
2022-11-12T04:45:03.917Z,23.87
2022-11-12T04:47:34.590Z,25.00
2022-11-12T04:50:03.285Z,20.87
2022-11-12T04:52:32.604Z,23.50
2022-11-12T04:55:00.827Z,23.30
2022-11-12T04:57:28.635Z,22.63
2022-11-12T04:59:56.428Z,25.40
2022-11-12T05:02:24.817Z,23.53
2022-11-12T05:04:52.675Z,25.23
2022-11-12T05:07:20.520Z,23.93
2022-11-12T05:09:49.952Z,26.63
2022-11-12T05:12:17.766Z,24.73
2022-11-12T05:14:45.563Z,27.07
2022-11-12T05:17:13.371Z,26.83
2022-11-12T05:19:41.173Z,26.17
2022-11-12T05:22:21.840Z,32.00
2022-11-12T05:24:56.483Z,26.00
2022-11-12T05:27:24.266Z,28.13
2022-11-12T05:29:52.065Z,31.17
2022-11-12T05:32:19.919Z,28.00
2022-11-12T05:34:47.807Z,35.10
2022-11-12T05:37:18.259Z,30.57
2022-11-12T05:39:46.058Z,30.67
2022-11-12T05:42:15.266Z,32.40
2022-11-12T05:44:43.047Z,27.13
2022-11-12T05:47:10.859Z,31.63
2022-11-12T05:49:39.156Z,31.63
2022-11-12T05:52:07.030Z,25.80
2022-11-12T05:54:34.809Z,20.80
2022-11-12T05:57:02.653Z,20.90
2022-11-12T05:59:31.805Z,15.53
2022-11-12T06:01:59.815Z,14.07
2022-11-12T06:04:27.839Z,15.57
2022-11-12T06:06:55.705Z,13.43
2022-11-12T06:09:23.538Z,18.17
2022-11-12T06:11:51.355Z,18.67
2022-11-12T06:14:19.171Z,19.17
2022-11-12T06:16:48.275Z,24.27
2022-11-12T06:19:16.031Z,19.47
2022-11-12T06:21:43.834Z,20.13
2022-11-12T06:24:12.055Z,20.63
2022-11-12T06:26:39.850Z,18.03
2022-11-12T06:29:07.620Z,18.20
2022-11-12T06:31:35.454Z,22.43
2022-11-12T06:34:04.727Z,20.77
2022-11-12T06:36:32.540Z,22.17
2022-11-12T06:39:00.294Z,20.00
2022-11-12T06:41:28.053Z,20.73
2022-11-12T06:43:55.848Z,21.27
2022-11-12T06:46:23.608Z,22.60
2022-11-12T06:48:51.416Z,22.00
2022-11-12T06:51:21.957Z,21.47
2022-11-12T06:53:51.719Z,21.80
2022-11-12T06:56:19.689Z,18.87
2022-11-12T06:58:47.564Z,19.13
2022-11-12T07:01:17.199Z,15.40
2022-11-12T07:03:45.890Z,16.00
2022-11-12T07:06:15.614Z,14.23
2022-11-12T07:08:44.725Z,13.00
2022-11-12T07:11:12.489Z,16.73
2022-11-12T07:13:40.662Z,12.90
2022-11-12T07:16:10.771Z,13.33
2022-11-12T07:18:39.218Z,14.40
2022-11-12T07:21:09.435Z,14.60
2022-11-12T07:23:38.266Z,14.80
2022-11-12T07:26:09.251Z,12.03
2022-11-12T07:28:37.002Z,12.60
2022-11-12T07:31:06.802Z,10.70
2022-11-12T07:33:35.229Z,11.87
2022-11-12T07:36:05.664Z,10.57
2022-11-12T07:38:35.295Z,10.33
2022-11-12T07:41:04.263Z,10.67
2022-11-12T07:43:34.728Z,10.37
2022-11-12T07:46:10.046Z,9.50
2022-11-12T07:48:38.557Z,11.30
2022-11-12T07:51:08.566Z,9.77
2022-11-12T07:53:36.389Z,10.53
2022-11-12T07:56:04.789Z,9.40
2022-11-12T07:58:35.237Z,11.70
2022-11-12T08:01:09.437Z,9.60
2022-11-12T08:03:37.397Z,9.80
2022-11-12T08:06:05.722Z,10.03
2022-11-12T08:08:33.565Z,9.57
2022-11-12T08:11:01.395Z,9.53
2022-11-12T08:13:29.211Z,8.50
2022-11-12T08:16:00.100Z,8.87
2022-11-12T08:18:28.555Z,8.80
2022-11-12T08:21:01.417Z,9.50
2022-11-12T08:23:29.405Z,8.47
2022-11-12T08:25:59.905Z,8.93
2022-11-12T08:28:29.742Z,9.70
2022-11-12T08:31:03.272Z,10.07
2022-11-12T08:33:31.629Z,10.67
2022-11-12T08:36:03.529Z,8.77
2022-11-12T08:38:31.489Z,8.50
2022-11-12T08:41:01.930Z,11.17
2022-11-12T08:43:29.750Z,12.03
2022-11-12T08:46:00.721Z,12.87
2022-11-12T08:48:29.851Z,14.67
2022-11-12T08:50:58.506Z,12.33
2022-11-12T08:53:27.869Z,14.33
2022-11-12T08:55:56.751Z,12.57
2022-11-12T08:58:26.775Z,14.27
2022-11-12T09:00:55.947Z,17.20
2022-11-12T09:03:26.488Z,13.73
2022-11-12T09:05:55.090Z,14.03
2022-11-12T09:08:25.316Z,11.70
2022-11-12T09:10:53.775Z,13.70
2022-11-12T09:13:21.785Z,11.67
2022-11-12T09:15:49.781Z,13.13
2022-11-12T09:18:19.537Z,13.23
2022-11-12T09:20:48.792Z,16.97
2022-11-12T09:23:17.735Z,16.93
2022-11-12T09:25:45.668Z,15.77
2022-11-12T09:28:15.230Z,14.20
2022-11-12T09:30:46.284Z,10.70
2022-11-12T09:33:14.457Z,10.93
2022-11-12T09:35:42.279Z,10.70
2022-11-12T09:38:11.402Z,9.97
2022-11-12T09:40:49.732Z,9.93
2022-11-12T09:43:24.613Z,13.53
2022-11-12T09:46:21.460Z,12.67
2022-11-12T09:48:49.716Z,9.20
2022-11-12T09:51:25.242Z,10.13
2022-11-12T09:53:57.094Z,11.53
2022-11-12T09:56:25.886Z,9.90
2022-11-12T09:58:54.912Z,11.20
2022-11-12T10:01:33.268Z,9.87
2022-11-12T10:04:12.037Z,9.43
2022-11-12T10:06:46.848Z,8.13
2022-11-12T10:09:23.868Z,9.20
2022-11-12T10:12:28.962Z,9.30
2022-11-12T10:15:33.458Z,10.40
2022-11-12T10:18:07.734Z,10.90
2022-11-12T10:20:44.201Z,8.50
2022-11-12T10:23:19.973Z,11.47
2022-11-12T10:25:52.018Z,9.47
2022-11-12T10:28:35.661Z,8.00
2022-11-12T10:31:12.440Z,9.30
2022-11-12T10:33:40.512Z,9.43
2022-11-12T10:36:23.313Z,8.23
2022-11-12T10:38:55.587Z,8.80
2022-11-12T10:41:27.805Z,8.13
2022-11-12T10:43:59.456Z,10.90
2022-11-12T10:46:47.879Z,7.23
2022-11-12T10:49:25.506Z,8.30
2022-11-12T10:51:57.624Z,7.40
2022-11-12T10:54:32.349Z,9.03
2022-11-12T10:57:20.940Z,7.87
2022-11-12T11:00:04.422Z,10.27
2022-11-12T11:02:32.544Z,9.27
2022-11-12T11:05:00.442Z,7.10
2022-11-12T11:07:28.470Z,10.13
2022-11-12T11:09:58.480Z,7.50
2022-11-12T11:12:30.744Z,10.03
2022-11-12T11:15:24.998Z,7.80
2022-11-12T11:17:53.851Z,8.23
2022-11-12T11:20:30.250Z,8.37
2022-11-12T11:23:04.905Z,8.97
2022-11-12T11:25:38.865Z,7.27
2022-11-12T11:28:23.650Z,7.57
2022-11-12T11:31:00.151Z,9.97
2022-11-12T11:33:38.245Z,8.77
2022-11-12T11:36:22.927Z,7.43
2022-11-12T11:38:59.704Z,7.60
2022-11-12T11:41:48.090Z,9.27
2022-11-12T11:44:27.175Z,7.23
2022-11-12T11:47:07.426Z,8.33
2022-11-12T11:49:55.083Z,9.13
2022-11-12T11:52:40.660Z,6.93
2022-11-12T11:55:38.987Z,6.80
2022-11-12T11:58:35.260Z,7.10
2022-11-12T12:01:13.360Z,8.47
2022-11-12T12:04:01.398Z,7.53
2022-11-12T12:06:32.857Z,10.43
2022-11-12T12:09:09.139Z,9.80
2022-11-12T12:11:43.109Z,7.13
2022-11-12T12:14:29.249Z,10.23
2022-11-12T12:17:11.319Z,7.47
2022-11-12T12:19:49.865Z,7.63
2022-11-12T12:22:25.381Z,7.63
2022-11-12T12:24:59.219Z,7.00
2022-11-12T12:27:31.785Z,6.87
2022-11-12T12:30:02.979Z,8.80
2022-11-12T12:32:37.039Z,7.63
2022-11-12T12:35:15.919Z,8.30
2022-11-12T12:37:49.063Z,12.00
2022-11-12T12:40:22.217Z,8.13
2022-11-12T12:42:54.503Z,10.90
2022-11-12T12:45:36.121Z,10.87
2022-11-12T12:48:08.607Z,7.60
2022-11-12T12:50:38.612Z,8.17
2022-11-12T12:53:16.466Z,11.00
2022-11-12T12:55:45.893Z,7.93
2022-11-12T12:58:26.942Z,9.17
2022-11-12T13:01:01.364Z,7.40
2022-11-12T13:03:58.241Z,7.60
2022-11-12T13:06:29.295Z,8.67
2022-11-12T13:09:01.487Z,7.73
2022-11-12T13:12:08.071Z,8.43
2022-11-12T13:15:10.464Z,8.60
2022-11-12T13:17:50.214Z,7.67
2022-11-12T13:20:37.001Z,7.77
2022-11-12T13:23:10.634Z,8.17
2022-11-12T13:25:39.644Z,7.27
2022-11-12T13:28:12.105Z,8.73
2022-11-12T13:31:24.606Z,10.47
2022-11-12T13:33:52.554Z,10.73
2022-11-12T13:36:31.012Z,10.63
2022-11-12T13:39:15.280Z,10.47
2022-11-12T13:42:01.020Z,10.10
2022-11-12T13:44:30.148Z,10.67
2022-11-12T13:46:58.267Z,10.10
2022-11-12T13:49:26.285Z,10.03
2022-11-12T13:51:56.719Z,8.93
2022-11-12T13:54:33.020Z,10.00
2022-11-12T13:57:30.106Z,9.27
2022-11-12T14:00:20.664Z,8.60
2022-11-12T14:02:53.000Z,8.53
2022-11-12T14:05:24.254Z,8.23
2022-11-12T14:08:13.071Z,7.83
2022-11-12T14:10:50.039Z,7.33
2022-11-12T14:13:41.717Z,8.40
2022-11-12T14:16:32.630Z,8.40
2022-11-12T14:19:19.038Z,10.83
2022-11-12T14:22:00.361Z,8.13
2022-11-12T14:24:29.784Z,7.37
2022-11-12T14:26:57.786Z,8.00
2022-11-12T14:29:29.921Z,7.77
2022-11-12T14:32:03.206Z,9.97
2022-11-12T14:34:32.937Z,8.47
2022-11-12T14:37:01.021Z,7.87
2022-11-12T14:39:31.560Z,9.03
2022-11-12T14:42:01.081Z,7.33
2022-11-12T14:44:34.575Z,9.40
2022-11-12T14:47:03.331Z,7.83
2022-11-12T14:49:42.437Z,7.63
2022-11-12T14:52:16.452Z,8.37
2022-11-12T14:54:50.464Z,9.90
2022-11-12T14:57:23.656Z,8.57
2022-11-12T14:59:51.779Z,6.87
2022-11-12T15:02:36.016Z,8.30
2022-11-12T15:05:17.370Z,9.83
2022-11-12T15:07:57.204Z,6.97
2022-11-12T15:10:36.147Z,7.00
2022-11-12T15:13:07.164Z,6.30
2022-11-12T15:15:37.623Z,6.87
2022-11-12T15:18:08.083Z,7.23
2022-11-12T15:20:36.003Z,9.23
2022-11-12T15:23:04.035Z,6.80
2022-11-12T15:25:33.663Z,5.93
2022-11-12T15:28:14.833Z,7.20
2022-11-12T15:30:42.747Z,7.17
2022-11-12T15:33:18.872Z,8.40
2022-11-12T15:35:46.965Z,8.00
2022-11-12T15:38:23.292Z,7.87
2022-11-12T15:40:57.522Z,8.13
2022-11-12T15:43:28.453Z,6.70
2022-11-12T15:45:57.513Z,8.00
2022-11-12T15:48:25.542Z,7.80
2022-11-12T15:50:53.529Z,9.33
2022-11-12T15:53:21.767Z,11.60
2022-11-12T15:55:50.812Z,8.07
2022-11-12T15:58:22.360Z,8.87
2022-11-12T16:00:50.367Z,8.90
2022-11-12T16:03:20.718Z,7.60
2022-11-12T16:05:48.795Z,9.83
2022-11-12T16:08:16.867Z,9.13
2022-11-12T16:10:46.843Z,8.30
2022-11-12T16:13:17.528Z,7.97
2022-11-12T16:15:48.009Z,10.03
2022-11-12T16:18:15.844Z,7.97
2022-11-12T16:20:43.846Z,9.17
2022-11-12T16:23:11.758Z,8.17
2022-11-12T16:25:42.370Z,8.07
2022-11-12T16:28:15.284Z,8.63
2022-11-12T16:30:43.746Z,7.00
2022-11-12T16:33:14.617Z,8.13
2022-11-12T16:35:43.007Z,8.20
2022-11-12T16:38:15.248Z,6.97
2022-11-12T16:40:43.737Z,9.13
2022-11-12T16:43:11.928Z,7.10
2022-11-12T16:45:42.049Z,6.73
2022-11-12T16:48:16.711Z,6.90
2022-11-12T16:50:44.917Z,7.17
2022-11-12T16:53:12.931Z,8.13
2022-11-12T16:55:40.905Z,8.37
2022-11-12T16:58:12.407Z,7.20
2022-11-12T17:00:41.494Z,6.50
2022-11-12T17:03:13.917Z,6.93
2022-11-12T17:05:41.757Z,8.43
2022-11-12T17:08:10.677Z,6.33
2022-11-12T17:10:38.695Z,7.43
2022-11-12T17:13:06.509Z,6.80
2022-11-12T17:15:34.328Z,6.33
2022-11-12T17:18:03.230Z,7.30
2022-11-12T17:20:34.034Z,6.37
2022-11-12T17:23:01.864Z,6.10
2022-11-12T17:25:29.690Z,7.67
2022-11-12T17:27:57.506Z,7.37
2022-11-12T17:30:25.275Z,7.63
2022-11-12T17:32:53.078Z,7.73
2022-11-12T17:35:20.918Z,6.50
2022-11-12T17:37:51.199Z,7.57
2022-11-12T17:40:19.133Z,8.97
2022-11-12T17:42:46.953Z,10.27
2022-11-12T17:45:14.880Z,10.00
2022-11-12T17:47:42.672Z,9.40
2022-11-12T17:50:10.605Z,10.00
2022-11-12T17:52:38.432Z,10.60
2022-11-12T17:55:08.408Z,9.87
2022-11-12T17:57:36.253Z,9.33
2022-11-12T18:00:05.180Z,6.80
2022-11-12T18:02:33.174Z,8.53
2022-11-12T18:05:01.010Z,7.67
2022-11-12T18:07:28.841Z,7.23
2022-11-12T18:09:56.700Z,7.37
2022-11-12T18:12:25.965Z,10.00
2022-11-12T18:14:53.778Z,7.80
2022-11-12T18:17:21.603Z,8.10
2022-11-12T18:19:49.454Z,11.10
2022-11-12T18:22:18.935Z,7.20
2022-11-12T18:24:47.909Z,9.33
2022-11-12T18:27:15.959Z,10.47
2022-11-12T18:29:46.248Z,8.50
2022-11-12T18:32:14.708Z,8.07
2022-11-12T18:34:45.028Z,7.73
2022-11-12T18:37:13.250Z,8.13
2022-11-12T18:39:41.231Z,7.23
2022-11-12T18:42:09.081Z,9.50
2022-11-12T18:44:36.952Z,8.17
2022-11-12T18:47:06.373Z,8.33
2022-11-12T18:49:34.232Z,7.27
2022-11-12T18:52:02.296Z,8.57
2022-11-12T18:54:31.145Z,8.50
2022-11-12T18:56:59.009Z,6.50
2022-11-12T18:59:30.653Z,7.80
2022-11-12T19:01:58.949Z,9.10
2022-11-12T19:04:28.457Z,8.00
2022-11-12T19:06:56.447Z,7.47
2022-11-12T19:09:24.422Z,8.37
2022-11-12T19:11:53.645Z,12.17
2022-11-12T19:14:21.674Z,7.80
2022-11-12T19:16:49.595Z,9.20
2022-11-12T19:19:17.601Z,10.53
2022-11-12T19:21:48.807Z,9.00
2022-11-12T19:24:16.904Z,11.33
2022-11-12T19:26:44.852Z,12.63
2022-11-12T19:29:12.829Z,8.80
2022-11-12T19:31:40.927Z,8.30
2022-11-12T19:34:08.963Z,14.13
2022-11-12T19:36:36.801Z,11.33
2022-11-12T19:39:06.047Z,10.10
2022-11-12T19:41:33.889Z,9.77
2022-11-12T19:44:01.805Z,13.33
2022-11-12T19:46:31.691Z,13.07
2022-11-12T19:48:59.720Z,12.80
2022-11-12T19:51:28.330Z,9.93
2022-11-12T19:53:56.218Z,11.60
2022-11-12T19:56:25.490Z,15.50
2022-11-12T19:58:55.011Z,9.83
2022-11-12T20:01:23.232Z,8.83
2022-11-12T20:03:51.191Z,10.37
2022-11-12T20:06:21.079Z,12.03
2022-11-12T20:08:48.916Z,9.77
2022-11-12T20:11:18.798Z,8.23
2022-11-12T20:13:48.019Z,9.47
2022-11-12T20:16:23.798Z,8.70
2022-11-12T20:18:54.385Z,8.17
2022-11-12T20:21:22.340Z,9.00
2022-11-12T20:23:50.415Z,10.03
2022-11-12T20:26:18.328Z,7.93
2022-11-12T20:28:47.739Z,11.03
2022-11-12T20:31:19.876Z,8.63
2022-11-12T20:33:48.984Z,8.20
2022-11-12T20:36:19.483Z,8.20
2022-11-12T20:38:49.931Z,9.37
2022-11-12T20:41:19.842Z,9.43
2022-11-12T20:43:52.560Z,8.83
2022-11-12T20:46:20.443Z,9.67
2022-11-12T20:48:49.290Z,8.20
2022-11-12T20:51:24.350Z,8.00
2022-11-12T20:53:59.336Z,8.57
2022-11-12T20:56:29.348Z,8.17
2022-11-12T20:58:59.350Z,8.03
2022-11-12T21:01:29.130Z,9.33
2022-11-12T21:03:58.223Z,7.73
2022-11-12T21:06:29.842Z,11.13
2022-11-12T21:08:59.887Z,10.73
2022-11-12T21:11:27.816Z,8.50
2022-11-12T21:13:55.665Z,10.83
2022-11-12T21:16:24.907Z,10.73
2022-11-12T21:18:52.792Z,8.47
2022-11-12T21:21:21.360Z,12.60
2022-11-12T21:23:50.893Z,9.73
2022-11-12T21:26:20.608Z,11.00
2022-11-12T21:28:50.299Z,11.07
2022-11-12T21:31:20.005Z,11.00
2022-11-12T21:33:52.225Z,10.60
2022-11-12T21:36:20.385Z,10.33
2022-11-12T21:38:48.736Z,11.07
2022-11-12T21:41:18.561Z,11.13
2022-11-12T21:43:47.151Z,10.80
2022-11-12T21:46:16.892Z,11.30
2022-11-12T21:48:45.646Z,9.03
2022-11-12T21:51:16.760Z,12.97
2022-11-12T21:53:44.886Z,10.13
2022-11-12T21:56:14.871Z,13.17
2022-11-12T21:58:43.686Z,9.70
2022-11-12T22:01:13.576Z,11.27
2022-11-12T22:03:41.397Z,10.00
2022-11-12T22:06:09.260Z,11.97
2022-11-12T22:08:39.224Z,8.97
2022-11-12T22:11:09.701Z,12.67
2022-11-12T22:13:38.367Z,10.20
2022-11-12T22:16:07.245Z,9.37
2022-11-12T22:18:35.314Z,9.57
2022-11-12T22:21:05.483Z,12.20
2022-11-12T22:23:35.936Z,7.80
2022-11-12T22:26:06.033Z,10.10
2022-11-12T22:28:34.785Z,12.03
2022-11-12T22:31:08.328Z,10.70
2022-11-12T22:33:36.463Z,9.53
2022-11-12T22:36:07.785Z,8.07
2022-11-12T22:38:36.323Z,8.30
2022-11-12T22:41:08.286Z,8.97
2022-11-12T22:43:37.903Z,10.03
2022-11-12T22:46:07.348Z,9.00
2022-11-12T22:48:35.567Z,7.47
2022-11-12T22:51:05.102Z,8.43
2022-11-12T22:53:33.087Z,8.60
2022-11-12T22:56:04.570Z,9.03
2022-11-12T22:58:36.262Z,9.53
2022-11-12T23:01:05.289Z,7.87
2022-11-12T23:03:33.525Z,8.53
2022-11-12T23:06:03.281Z,10.87
2022-11-12T23:08:32.207Z,8.17
2022-11-12T23:11:03.788Z,7.93
2022-11-12T23:13:33.403Z,9.87
2022-11-12T23:16:02.050Z,9.53
2022-11-12T23:18:30.612Z,7.93
2022-11-12T23:21:03.522Z,6.63
2022-11-12T23:23:31.450Z,9.13
2022-11-12T23:26:03.954Z,8.93
2022-11-12T23:28:33.323Z,12.57
2022-11-12T23:31:01.230Z,12.63
2022-11-12T23:33:29.190Z,9.67
2022-11-12T23:36:04.905Z,11.87
2022-11-12T23:38:33.210Z,11.83
2022-11-12T23:41:01.854Z,13.40
2022-11-12T23:43:29.798Z,10.37
2022-11-12T23:45:58.932Z,10.80
2022-11-12T23:48:27.538Z,8.53
2022-11-12T23:51:02.620Z,10.57
2022-11-12T23:53:30.633Z,7.40
2022-11-12T23:55:58.544Z,9.87
2022-11-12T23:58:26.551Z,7.67
